createdAt,value
2018-05-13T00:02:26.184Z,16.79
2018-05-13T00:04:54.680Z,16.82
2018-05-13T00:07:23.160Z,16.75
2018-05-13T00:09:51.648Z,16.75
2018-05-13T00:12:20.177Z,16.60
2018-05-13T00:14:48.637Z,16.79
2018-05-13T00:17:17.128Z,16.58
2018-05-13T00:19:45.637Z,16.60
2018-05-13T00:22:14.149Z,16.64
2018-05-13T00:24:42.618Z,16.63
2018-05-13T00:27:11.129Z,16.51
2018-05-13T00:29:39.590Z,16.54
2018-05-13T00:32:08.081Z,16.41
2018-05-13T00:34:36.584Z,16.47
2018-05-13T00:37:05.032Z,16.39
2018-05-13T00:39:33.540Z,16.42
2018-05-13T00:42:02.050Z,16.41
2018-05-13T00:44:30.508Z,16.54
2018-05-13T00:46:58.996Z,16.56
2018-05-13T00:49:27.472Z,16.62
2018-05-13T00:51:55.963Z,16.64
2018-05-13T00:54:36.197Z,16.61
2018-05-13T00:57:04.672Z,16.70
2018-05-13T00:59:33.178Z,16.68
2018-05-13T01:02:01.649Z,16.71
2018-05-13T01:04:30.168Z,16.68
2018-05-13T01:06:58.631Z,16.81
2018-05-13T01:09:27.177Z,16.87
2018-05-13T01:11:55.628Z,16.81
2018-05-13T01:14:24.113Z,16.89
2018-05-13T01:16:52.590Z,16.89
2018-05-13T01:19:21.102Z,16.89
2018-05-13T01:21:49.588Z,16.83
2018-05-13T01:24:18.048Z,16.88
2018-05-13T01:26:46.606Z,16.86
2018-05-13T01:29:15.073Z,16.82
2018-05-13T01:31:43.599Z,16.92
2018-05-13T01:34:12.080Z,16.90
2018-05-13T01:36:40.532Z,16.86
2018-05-13T01:39:09.024Z,16.79
2018-05-13T01:41:37.473Z,16.59
2018-05-13T01:44:05.977Z,16.56
2018-05-13T01:46:34.445Z,16.63
2018-05-13T01:49:02.953Z,16.64
2018-05-13T01:51:31.411Z,16.52
2018-05-13T01:53:59.900Z,16.49
2018-05-13T01:56:28.388Z,16.45
2018-05-13T01:58:56.888Z,16.47
2018-05-13T02:01:25.361Z,16.54
2018-05-13T02:03:53.864Z,16.48
2018-05-13T02:06:22.343Z,16.39
2018-05-13T02:08:50.869Z,16.33
2018-05-13T02:11:19.345Z,16.29
2018-05-13T02:13:47.836Z,16.28
2018-05-13T02:16:16.332Z,16.13
2018-05-13T02:18:44.832Z,16.12
2018-05-13T02:21:13.385Z,16.02
2018-05-13T02:23:41.836Z,15.80
2018-05-13T02:26:10.342Z,15.68
2018-05-13T02:28:38.820Z,15.57
2018-05-13T02:31:07.312Z,15.53
2018-05-13T02:33:35.805Z,15.44
2018-05-13T02:36:04.291Z,15.44
2018-05-13T02:38:32.802Z,15.38
2018-05-13T02:41:01.334Z,15.30
2018-05-13T02:43:29.841Z,15.30
2018-05-13T02:45:58.328Z,15.35
2018-05-13T02:48:26.825Z,15.07
2018-05-13T02:50:55.317Z,15.23
2018-05-13T02:53:23.776Z,15.27
2018-05-13T02:55:52.319Z,15.11
2018-05-13T02:58:20.777Z,15.22
2018-05-13T03:00:49.260Z,15.17
2018-05-13T03:03:17.696Z,15.11
2018-05-13T03:05:46.189Z,15.24
2018-05-13T03:08:14.656Z,15.23
2018-05-13T03:10:43.181Z,15.07
2018-05-13T03:13:11.688Z,15.12
2018-05-13T03:15:40.258Z,15.10
2018-05-13T03:18:08.712Z,15.18
2018-05-13T03:20:37.240Z,15.22
2018-05-13T03:23:05.704Z,15.13
2018-05-13T03:25:34.188Z,15.09
2018-05-13T03:28:02.690Z,15.10
2018-05-13T03:30:31.184Z,15.12
2018-05-13T03:32:59.646Z,15.11
2018-05-13T03:35:28.149Z,15.09
2018-05-13T03:37:56.655Z,15.18
2018-05-13T03:40:25.101Z,15.18
2018-05-13T03:42:53.618Z,15.26
2018-05-13T03:45:22.057Z,15.30
2018-05-13T03:47:50.561Z,15.31
2018-05-13T03:50:19.047Z,15.31
2018-05-13T03:52:47.533Z,15.35
2018-05-13T03:55:15.997Z,15.37
2018-05-13T03:57:44.520Z,15.42
2018-05-13T04:00:12.988Z,15.58
2018-05-13T04:02:41.448Z,15.62
2018-05-13T04:05:09.953Z,15.73
2018-05-13T04:11:08.009Z,15.72
2018-05-13T04:13:48.164Z,15.81
2018-05-13T04:16:16.632Z,15.78
2018-05-13T04:18:45.215Z,15.76
2018-05-13T04:21:13.789Z,15.68
2018-05-13T04:23:42.286Z,15.69
2018-05-13T04:26:10.759Z,15.69
2018-05-13T04:28:39.242Z,15.79
2018-05-13T04:31:07.741Z,15.75
2018-05-13T04:33:36.248Z,15.92
2018-05-13T04:36:04.732Z,15.95
2018-05-13T04:38:33.189Z,16.03
2018-05-13T04:41:01.706Z,15.97
2018-05-13T04:43:30.208Z,15.93
2018-05-13T04:45:58.708Z,15.91
2018-05-13T04:48:27.182Z,15.92
2018-05-13T04:50:55.701Z,15.94
2018-05-13T04:53:24.162Z,15.97
2018-05-13T04:55:52.688Z,15.89
2018-05-13T04:58:21.152Z,15.96
2018-05-13T05:00:49.657Z,15.78
2018-05-13T05:03:18.146Z,15.88
2018-05-13T05:05:46.679Z,15.88
2018-05-13T05:08:15.188Z,16.00
2018-05-13T05:10:43.665Z,16.10
2018-05-13T05:13:12.228Z,16.14
2018-05-13T05:15:40.736Z,16.24
2018-05-13T05:18:09.203Z,16.27
2018-05-13T05:20:37.728Z,16.31
2018-05-13T05:23:06.196Z,16.42
2018-05-13T05:25:34.655Z,16.54
2018-05-13T05:28:03.108Z,16.56
2018-05-13T05:30:31.612Z,16.69
2018-05-13T05:33:00.085Z,16.73
2018-05-13T05:35:28.600Z,16.93
2018-05-13T05:37:57.149Z,17.13
2018-05-13T05:40:25.679Z,16.97
2018-05-13T05:42:54.192Z,17.21
2018-05-13T05:45:22.689Z,17.22
2018-05-13T05:47:51.157Z,17.39
2018-05-13T05:50:19.648Z,17.39
2018-05-13T05:52:48.124Z,17.51
2018-05-13T05:55:16.624Z,17.52
2018-05-13T05:57:45.153Z,17.48
2018-05-13T06:00:13.633Z,17.54
2018-05-13T06:02:42.084Z,17.75
2018-05-13T06:05:10.581Z,17.71
2018-05-13T06:07:39.050Z,17.79
2018-05-13T06:10:07.544Z,17.93
2018-05-13T06:12:36.017Z,18.15
2018-05-13T06:15:04.486Z,18.44
2018-05-13T06:17:33.029Z,18.72
2018-05-13T06:20:01.549Z,19.03
2018-05-13T06:22:30.056Z,19.07
2018-05-13T06:24:58.508Z,19.41
2018-05-13T06:27:26.994Z,19.41
2018-05-13T06:29:55.507Z,19.75
2018-05-13T06:32:23.998Z,19.96
2018-05-13T06:34:52.473Z,20.15
2018-05-13T06:37:21.068Z,20.30
2018-05-13T06:39:49.465Z,20.53
2018-05-13T06:42:17.960Z,20.66
2018-05-13T06:44:46.418Z,20.80
2018-05-13T06:47:14.925Z,20.89
2018-05-13T06:49:43.376Z,21.11
2018-05-13T06:52:11.894Z,21.48
2018-05-13T06:54:40.445Z,21.52
2018-05-13T06:57:08.896Z,21.74
2018-05-13T06:59:37.348Z,21.70
2018-05-13T07:02:05.830Z,21.60
2018-05-13T07:04:34.300Z,22.03
2018-05-13T07:07:02.804Z,22.06
2018-05-13T07:09:31.339Z,21.84
2018-05-13T07:11:59.802Z,22.10
2018-05-13T07:14:28.293Z,22.37
2018-05-13T07:16:56.777Z,22.24
2018-05-13T07:19:25.228Z,22.38
2018-05-13T07:21:53.680Z,22.36
2018-05-13T07:24:22.162Z,22.43
2018-05-13T07:26:50.637Z,22.25
2018-05-13T07:29:19.145Z,22.21
2018-05-13T07:31:47.604Z,22.09
2018-05-13T07:34:16.116Z,21.78
2018-05-13T07:36:44.575Z,21.85
2018-05-13T07:39:13.101Z,21.89
2018-05-13T07:41:41.549Z,22.10
2018-05-13T07:44:09.997Z,22.19
2018-05-13T07:46:38.497Z,22.27
2018-05-13T07:49:06.948Z,22.35
2018-05-13T07:51:35.444Z,22.00
2018-05-13T07:54:03.888Z,22.21
2018-05-13T07:56:32.394Z,22.51
2018-05-13T07:59:00.912Z,22.38
2018-05-13T08:01:29.371Z,22.34
2018-05-13T08:03:57.825Z,22.50
2018-05-13T08:06:26.319Z,22.42
2018-05-13T08:08:54.796Z,22.77
2018-05-13T08:11:23.290Z,22.75
2018-05-13T08:13:51.792Z,22.93
2018-05-13T08:16:20.312Z,23.03
2018-05-13T08:18:48.808Z,23.07
2018-05-13T08:21:17.284Z,22.61
2018-05-13T08:23:45.784Z,22.49
2018-05-13T08:26:14.239Z,22.74
2018-05-13T08:28:42.719Z,22.88
2018-05-13T08:31:11.241Z,21.99
2018-05-13T08:33:39.696Z,22.46
2018-05-13T08:36:08.204Z,22.49
2018-05-13T08:38:36.677Z,22.51
2018-05-13T08:41:05.213Z,22.74
2018-05-13T08:43:33.680Z,22.48
2018-05-13T08:46:02.186Z,22.77
2018-05-13T08:48:30.663Z,22.75
2018-05-13T08:50:59.161Z,22.99
2018-05-13T08:53:27.712Z,23.13
2018-05-13T08:55:56.221Z,23.09
2018-05-13T08:58:24.696Z,23.19
2018-05-13T09:00:53.204Z,23.11
2018-05-13T09:03:21.665Z,23.35
2018-05-13T09:05:50.165Z,23.65
2018-05-13T09:08:18.709Z,23.72
2018-05-13T09:10:47.185Z,23.58
2018-05-13T09:13:15.681Z,23.80
2018-05-13T09:15:44.159Z,23.87
2018-05-13T09:18:12.626Z,23.44
2018-05-13T09:20:41.241Z,23.50
2018-05-13T09:23:09.636Z,23.14
2018-05-13T09:25:38.099Z,23.06
2018-05-13T09:28:06.604Z,23.27
2018-05-13T09:30:35.118Z,23.26
2018-05-13T09:33:03.660Z,23.58
2018-05-13T09:35:32.149Z,23.77
2018-05-13T09:38:00.661Z,23.72
2018-05-13T09:40:29.174Z,23.79
2018-05-13T09:42:57.632Z,23.93
2018-05-13T09:45:26.128Z,23.61
2018-05-13T09:47:54.621Z,23.80
2018-05-13T09:50:23.151Z,23.67
2018-05-13T09:52:51.668Z,23.91
2018-05-13T09:55:20.177Z,23.78
2018-05-13T09:57:48.692Z,23.74
2018-05-13T10:00:17.192Z,23.93
2018-05-13T10:02:45.716Z,23.82
2018-05-13T10:05:14.213Z,23.99
2018-05-13T10:07:42.687Z,24.32
2018-05-13T10:10:11.200Z,24.41
2018-05-13T10:12:39.696Z,24.41
2018-05-13T10:15:08.206Z,24.54
2018-05-13T10:17:36.670Z,24.41
2018-05-13T10:20:05.203Z,24.61
2018-05-13T10:22:33.724Z,24.45
2018-05-13T10:25:02.245Z,24.67
2018-05-13T10:27:30.702Z,24.70
2018-05-13T10:29:59.164Z,24.81
2018-05-13T10:32:27.629Z,24.79
2018-05-13T10:34:56.105Z,24.77
2018-05-13T10:37:24.608Z,24.86
2018-05-13T10:39:53.064Z,24.93
2018-05-13T10:42:21.593Z,24.97
2018-05-13T10:44:50.099Z,25.13
2018-05-13T10:47:18.619Z,25.10
2018-05-13T10:49:47.076Z,24.99
2018-05-13T10:52:15.582Z,25.19
2018-05-13T10:54:44.081Z,25.06
2018-05-13T10:57:12.596Z,24.91
2018-05-13T10:59:41.065Z,25.11
2018-05-13T11:02:09.557Z,25.25
2018-05-13T11:04:38.107Z,25.28
2018-05-13T11:07:06.637Z,25.12
2018-05-13T11:09:35.105Z,25.06
2018-05-13T11:12:03.600Z,25.20
2018-05-13T11:14:32.090Z,25.30
2018-05-13T11:17:00.584Z,25.29
2018-05-13T11:19:29.050Z,25.35
2018-05-13T11:21:57.508Z,25.46
2018-05-13T11:24:26.011Z,25.57
2018-05-13T11:26:54.478Z,25.57
2018-05-13T11:29:22.993Z,25.50
2018-05-13T11:31:51.461Z,25.53
2018-05-13T11:34:19.924Z,25.58
2018-05-13T11:36:48.420Z,25.59
2018-05-13T11:39:16.876Z,25.54
2018-05-13T11:41:45.376Z,25.61
2018-05-13T11:44:13.836Z,25.58
2018-05-13T11:46:42.402Z,25.23
2018-05-13T11:49:10.950Z,25.42
2018-05-13T11:51:39.385Z,25.29
2018-05-13T11:54:07.883Z,25.28
2018-05-13T11:56:36.365Z,25.44
2018-05-13T11:59:04.872Z,25.58
2018-05-13T12:01:33.305Z,25.39
2018-05-13T12:04:01.796Z,25.39
2018-05-13T12:06:30.269Z,25.57
2018-05-13T12:08:58.773Z,25.66
2018-05-13T12:11:27.282Z,25.56
2018-05-13T12:13:55.776Z,25.60
2018-05-13T12:16:24.236Z,25.77
2018-05-13T12:18:52.736Z,25.63
2018-05-13T12:21:21.195Z,25.82
2018-05-13T12:23:49.692Z,25.44
2018-05-13T12:26:18.172Z,25.40
2018-05-13T12:28:47.041Z,25.60
2018-05-13T12:31:15.545Z,25.71
2018-05-13T12:33:44.004Z,26.00
2018-05-13T12:36:12.500Z,25.79
2018-05-13T12:38:40.948Z,25.88
2018-05-13T12:41:09.441Z,25.82
2018-05-13T12:43:37.885Z,26.01
2018-05-13T12:46:06.389Z,26.12
2018-05-13T12:48:34.861Z,26.16
2018-05-13T12:51:03.328Z,26.22
2018-05-13T12:53:31.812Z,26.25
2018-05-13T12:56:00.300Z,26.39
2018-05-13T12:58:28.791Z,26.43
2018-05-13T13:00:57.264Z,26.22
2018-05-13T13:03:25.764Z,26.07
2018-05-13T13:05:54.239Z,25.93
2018-05-13T13:08:22.728Z,25.95
2018-05-13T13:10:51.235Z,25.99
2018-05-13T13:13:19.689Z,25.99
2018-05-13T13:15:48.165Z,25.87
2018-05-13T13:18:16.660Z,25.83
2018-05-13T13:20:45.145Z,26.13
2018-05-13T13:23:13.623Z,26.29
2018-05-13T13:25:42.073Z,26.44
2018-05-13T13:28:10.592Z,26.54
2018-05-13T13:30:39.077Z,26.64
2018-05-13T13:33:07.582Z,26.57
2018-05-13T13:35:36.116Z,26.70
2018-05-13T13:38:04.581Z,26.58
2018-05-13T13:40:33.078Z,26.57
2018-05-13T13:43:01.548Z,26.52
2018-05-13T13:45:30.060Z,26.44
2018-05-13T13:47:58.501Z,26.33
2018-05-13T13:50:27.042Z,26.24
2018-05-13T13:52:55.519Z,26.21
2018-05-13T13:55:24.016Z,26.17
2018-05-13T13:57:52.557Z,25.97
2018-05-13T14:00:21.049Z,26.07
2018-05-13T14:02:49.544Z,26.12
2018-05-13T14:05:17.993Z,26.12
2018-05-13T14:07:46.497Z,26.13
2018-05-13T14:10:14.997Z,26.23
2018-05-13T14:12:43.516Z,26.25
2018-05-13T14:15:11.994Z,26.30
2018-05-13T14:17:40.481Z,26.32
2018-05-13T14:20:09.051Z,26.29
2018-05-13T14:22:37.493Z,26.21
2018-05-13T14:25:05.973Z,26.22
2018-05-13T14:27:34.472Z,26.21
2018-05-13T14:30:03.024Z,26.20
2018-05-13T14:32:31.534Z,26.27
2018-05-13T14:34:59.997Z,26.35
2018-05-13T14:37:28.500Z,26.41
2018-05-13T14:39:56.970Z,26.43
2018-05-13T14:42:25.464Z,26.54
2018-05-13T14:44:53.908Z,26.60
2018-05-13T14:47:22.407Z,26.69
2018-05-13T14:49:50.933Z,26.75
2018-05-13T14:52:19.376Z,26.72
2018-05-13T14:54:47.911Z,26.71
2018-05-13T14:57:16.378Z,26.65
2018-05-13T14:59:44.891Z,26.60
2018-05-13T15:02:13.353Z,26.59
2018-05-13T15:04:41.852Z,26.39
2018-05-13T15:07:10.336Z,26.37
2018-05-13T15:09:38.821Z,26.08
2018-05-13T15:12:07.289Z,25.85
2018-05-13T15:14:35.752Z,25.79
2018-05-13T15:17:04.252Z,25.67
2018-05-13T15:19:32.714Z,25.53
2018-05-13T15:22:01.325Z,25.36
2018-05-13T15:24:29.800Z,25.40
2018-05-13T15:26:58.253Z,25.30
2018-05-13T15:29:26.733Z,25.32
2018-05-13T15:31:55.232Z,25.22
2018-05-13T15:34:23.725Z,25.27
2018-05-13T15:36:52.192Z,25.08
2018-05-13T15:39:20.699Z,24.94
2018-05-13T15:41:49.145Z,24.70
2018-05-13T15:44:17.622Z,24.76
2018-05-13T15:46:46.104Z,24.66
2018-05-13T15:49:14.604Z,24.66
2018-05-13T15:51:43.081Z,24.52
2018-05-13T15:54:11.553Z,24.52
2018-05-13T15:56:40.053Z,24.41
2018-05-13T15:59:08.529Z,24.50
2018-05-13T16:01:37.019Z,24.41
2018-05-13T16:04:05.529Z,24.30
2018-05-13T16:06:34.130Z,24.29
2018-05-13T16:09:02.553Z,24.24
2018-05-13T16:11:30.973Z,24.10
2018-05-13T16:13:59.453Z,24.09
2018-05-13T16:16:27.900Z,23.93
2018-05-13T16:18:56.488Z,23.88
2018-05-13T16:21:24.884Z,23.91
2018-05-13T16:23:53.393Z,23.89
2018-05-13T16:26:21.921Z,23.76
2018-05-13T16:28:50.417Z,23.80
2018-05-13T16:31:18.875Z,23.75
2018-05-13T16:33:48.037Z,23.70
2018-05-13T16:36:16.547Z,23.68
2018-05-13T16:38:45.014Z,23.61
2018-05-13T16:41:13.506Z,23.60
2018-05-13T16:43:42.004Z,23.58
2018-05-13T16:46:10.484Z,23.52
2018-05-13T16:48:38.926Z,23.50
2018-05-13T16:51:07.429Z,23.46
2018-05-13T16:53:35.913Z,23.43
2018-05-13T16:56:04.392Z,23.40
2018-05-13T16:58:32.872Z,23.37
2018-05-13T17:01:01.315Z,23.40
2018-05-13T17:03:29.825Z,23.24
2018-05-13T17:05:58.416Z,23.24
2018-05-13T17:08:26.924Z,23.19
2018-05-13T17:10:55.364Z,23.12
2018-05-13T17:13:23.826Z,23.04
2018-05-13T17:15:52.300Z,22.83
2018-05-13T17:18:20.766Z,22.83
2018-05-13T17:20:49.226Z,22.71
2018-05-13T17:23:17.670Z,22.57
2018-05-13T17:25:46.188Z,22.42
2018-05-13T17:28:14.605Z,22.29
2018-05-13T17:30:43.061Z,22.19
2018-05-13T17:33:11.524Z,22.23
2018-05-13T17:35:40.015Z,22.17
2018-05-13T17:38:08.521Z,22.09
2018-05-13T17:40:37.029Z,22.03
2018-05-13T17:43:05.473Z,21.95
2018-05-13T17:45:33.928Z,21.90
2018-05-13T17:48:02.416Z,21.82
2018-05-13T17:50:30.896Z,21.75
2018-05-13T17:52:59.375Z,21.68
2018-05-13T17:55:27.865Z,21.61
2018-05-13T17:57:56.372Z,21.55
2018-05-13T18:00:24.824Z,21.49
2018-05-13T18:02:53.354Z,21.45
2018-05-13T18:05:21.805Z,21.38
2018-05-13T18:07:50.252Z,21.31
2018-05-13T18:10:18.760Z,21.25
2018-05-13T18:12:47.245Z,21.21
2018-05-13T18:15:15.745Z,21.13
2018-05-13T18:17:44.243Z,21.06
2018-05-13T18:20:12.716Z,20.99
2018-05-13T18:22:41.196Z,20.93
2018-05-13T18:25:09.676Z,20.91
2018-05-13T18:27:38.103Z,20.92
2018-05-13T18:30:06.717Z,20.88
2018-05-13T18:32:35.183Z,20.79
2018-05-13T18:35:03.729Z,20.84
2018-05-13T18:37:32.192Z,20.84
2018-05-13T18:40:00.637Z,20.72
2018-05-13T18:42:29.121Z,20.69
2018-05-13T18:44:57.569Z,20.69
2018-05-13T18:47:26.056Z,20.65
2018-05-13T18:49:54.508Z,20.65
2018-05-13T18:52:22.988Z,20.62
2018-05-13T18:54:51.468Z,20.59
2018-05-13T18:57:19.997Z,20.50
2018-05-13T18:59:48.473Z,20.52
2018-05-13T19:02:16.954Z,20.55
2018-05-13T19:04:45.392Z,20.51
2018-05-13T19:07:13.874Z,20.47
2018-05-13T19:09:42.961Z,20.46
2018-05-13T19:12:11.420Z,20.34
2018-05-13T19:14:39.876Z,20.36
2018-05-13T19:17:08.344Z,20.37
2018-05-13T19:19:36.815Z,20.32
2018-05-13T19:22:05.301Z,20.31
2018-05-13T19:24:33.789Z,20.23
2018-05-13T19:27:02.228Z,20.14
2018-05-13T19:29:30.705Z,20.09
2018-05-13T19:31:59.162Z,20.16
2018-05-13T19:34:27.644Z,20.05
2018-05-13T19:36:56.136Z,20.01
2018-05-13T19:39:24.656Z,19.99
2018-05-13T19:41:53.096Z,19.96
2018-05-13T19:44:21.535Z,19.93
2018-05-13T19:46:50.005Z,19.90
2018-05-13T19:49:18.449Z,19.83
2018-05-13T19:51:46.928Z,19.71
2018-05-13T19:54:15.426Z,19.67
2018-05-13T19:56:43.882Z,19.59
2018-05-13T19:59:12.330Z,19.52
2018-05-13T20:01:40.821Z,19.41
2018-05-13T20:04:09.260Z,19.52
2018-05-13T20:06:37.737Z,19.48
2018-05-13T20:09:06.225Z,19.50
2018-05-13T20:11:34.712Z,19.47
2018-05-13T20:14:03.179Z,19.47
2018-05-13T20:16:31.664Z,19.45
2018-05-13T20:19:00.144Z,19.39
2018-05-13T20:21:28.653Z,19.34
2018-05-13T20:23:57.089Z,19.38
2018-05-13T20:26:25.577Z,19.31
2018-05-13T20:28:54.033Z,19.38
2018-05-13T20:31:22.526Z,19.19
2018-05-13T20:33:51.014Z,19.31
2018-05-13T20:36:19.452Z,19.32
2018-05-13T20:38:48.009Z,19.39
2018-05-13T20:41:16.454Z,19.39
2018-05-13T20:43:44.900Z,19.35
2018-05-13T20:46:13.371Z,19.42
2018-05-13T20:48:41.813Z,19.40
2018-05-13T20:51:10.331Z,19.44
2018-05-13T20:53:38.821Z,19.45
2018-05-13T20:56:07.288Z,19.44
2018-05-13T20:58:35.768Z,19.34
2018-05-13T21:01:04.225Z,19.48
2018-05-13T21:03:32.700Z,19.52
2018-05-13T21:06:01.153Z,19.48
2018-05-13T21:08:29.628Z,19.47
2018-05-13T21:10:58.069Z,19.50
2018-05-13T21:13:26.543Z,19.49
2018-05-13T21:15:55.029Z,19.43
2018-05-13T21:18:23.477Z,19.41
2018-05-13T21:20:51.942Z,19.40
2018-05-13T21:23:20.423Z,19.39
2018-05-13T21:25:48.874Z,19.41
2018-05-13T21:28:17.360Z,19.36
2018-05-13T21:30:45.801Z,19.34
2018-05-13T21:33:14.293Z,19.31
2018-05-13T21:35:42.774Z,19.17
2018-05-13T21:38:11.223Z,19.22
2018-05-13T21:40:39.704Z,19.14
2018-05-13T21:43:08.180Z,19.12
2018-05-13T21:45:36.661Z,19.03
2018-05-13T21:48:05.152Z,18.83
2018-05-13T21:50:33.640Z,18.85
2018-05-13T21:53:02.077Z,18.74
2018-05-13T21:55:30.560Z,18.80
2018-05-13T21:57:59.000Z,18.83
2018-05-13T22:00:27.493Z,18.83
2018-05-13T22:02:55.969Z,18.80
2018-05-13T22:05:24.409Z,18.79
2018-05-13T22:07:52.880Z,18.72
2018-05-13T22:10:21.325Z,18.62
2018-05-13T22:12:49.796Z,18.69
2018-05-13T22:15:18.282Z,18.55
2018-05-13T22:17:46.722Z,18.64
2018-05-13T22:20:15.208Z,18.63
2018-05-13T22:22:43.652Z,18.53
2018-05-13T22:25:12.133Z,18.51
2018-05-13T22:27:40.573Z,18.45
2018-05-13T22:30:09.061Z,18.40
2018-05-13T22:32:37.549Z,18.33
2018-05-13T22:35:06.040Z,18.29
2018-05-13T22:37:34.486Z,18.22
2018-05-13T22:40:02.992Z,18.18
2018-05-13T22:42:31.501Z,17.99
2018-05-13T22:45:00.009Z,17.98
2018-05-13T22:47:28.549Z,17.93
2018-05-13T22:49:56.989Z,17.91
2018-05-13T22:52:25.510Z,17.86
2018-05-13T22:54:54.000Z,17.83
2018-05-13T22:57:22.449Z,17.82
2018-05-13T22:59:50.935Z,17.74
2018-05-13T23:02:19.377Z,17.66
2018-05-13T23:04:47.900Z,17.65
2018-05-13T23:07:16.365Z,17.56
2018-05-13T23:09:44.828Z,17.62
2018-05-13T23:12:13.320Z,17.62
2018-05-13T23:14:41.811Z,17.62
2018-05-13T23:17:10.312Z,17.61
2018-05-13T23:19:38.780Z,17.61
2018-05-13T23:22:07.297Z,17.55
2018-05-13T23:24:35.780Z,17.61
2018-05-13T23:27:04.243Z,17.59
2018-05-13T23:29:32.744Z,17.58
2018-05-13T23:32:01.232Z,17.57
2018-05-13T23:34:29.759Z,17.54
2018-05-13T23:36:58.225Z,17.49
2018-05-13T23:39:26.744Z,17.44
2018-05-13T23:41:55.207Z,17.29
2018-05-13T23:44:23.681Z,17.34
2018-05-13T23:46:52.165Z,17.37
2018-05-13T23:49:20.685Z,17.36
2018-05-13T23:51:49.136Z,17.34
2018-05-13T23:54:17.632Z,17.33
2018-05-13T23:56:46.125Z,17.32
2018-05-13T23:59:14.635Z,17.29
